Time;durP1;ratioP1;P1;durP2;ratioP2;P2;SDS_P1;SDS_P2;PMS_P1;PMS_P2;Temp;Humidity;BMP_temperature;BMP_pressure;BME280_temperature;BME280_humidity;BME280_pressure;Samples;Min_cycle;Max_cycle;Signal;HPM_P1;HPM_P2
2024/02/25 00:03:35;;;;;;;0.80;0.80;;;15.30;1.00;;;;;;2614721;54;20431;-53
2024/02/25 00:09:23;;;;;;;0.90;0.90;;;15.30;1.00;;;;;;2614037;54;20132;-54
2024/02/25 00:18:33;;;;;;;0.90;0.90;;;15.30;1.00;;;;;;2614804;54;20397;-55
2024/02/25 00:24:22;;;;;;;0.90;0.90;;;15.30;1.00;;;;;;2614039;54;20564;-52
2024/02/25 00:30:10;;;;;;;1.00;1.00;;;15.30;1.00;;;;;;2614539;54;20974;-55
2024/02/25 00:35:57;;;;;;;0.90;0.90;;;15.30;1.00;;;;;;2614872;54;20391;-55
2024/02/25 00:41:45;;;;;;;0.90;0.90;;;15.30;1.00;;;;;;2613875;39;20692;-55
2024/02/25 00:47:36;;;;;;;0.90;0.90;;;15.30;1.00;;;;;;2614546;54;20130;-51
2024/02/25 00:53:24;;;;;;;0.90;0.90;;;15.30;1.00;;;;;;2614578;54;20390;-56
2024/02/25 00:59:11;;;;;;;0.80;0.80;;;15.30;1.00;;;;;;2614426;54;20177;-55
2024/02/25 01:04:59;;;;;;;0.80;0.80;;;15.30;1.00;;;;;;2614489;54;20203;-55
2024/02/25 01:10:47;;;;;;;0.80;0.80;;;15.30;1.00;;;;;;2614817;54;21131;-55
2024/02/25 01:16:34;;;;;;;0.70;0.70;;;15.30;1.00;;;;;;2613699;54;20188;-57
2024/02/25 01:22:22;;;;;;;0.70;0.70;;;15.30;1.00;;;;;;2614996;31;20616;-58
2024/02/25 01:28:10;;;;;;;0.80;0.80;;;15.30;1.00;;;;;;2614772;54;20145;-51
2024/02/25 01:33:57;;;;;;;0.80;0.80;;;15.30;1.00;;;;;;2614409;54;20117;-58
2024/02/25 01:39:45;;;;;;;0.90;0.90;;;15.30;1.00;;;;;;2615367;54;20651;-56
2024/02/25 01:45:32;;;;;;;0.80;0.80;;;15.30;1.00;;;;;;2614812;54;20177;-56
2024/02/25 01:51:20;;;;;;;1.33;1.23;;;15.30;1.00;;;;;;2614690;54;20127;-59
2024/02/25 01:57:08;;;;;;;0.80;0.80;;;15.30;1.00;;;;;;2615006;54;20374;-58
2024/02/25 02:02:59;;;;;;;0.87;0.87;;;15.30;1.00;;;;;;2615523;39;20495;-58
2024/02/25 02:08:46;;;;;;;0.90;0.90;;;15.30;1.00;;;;;;2614006;54;21029;-58
2024/02/25 02:14:34;;;;;;;0.80;0.80;;;15.30;1.00;;;;;;2614593;54;20118;-59
2024/02/25 02:20:22;;;;;;;0.80;0.80;;;15.30;1.00;;;;;;2613978;54;20188;-54
2024/02/25 02:26:10;;;;;;;0.80;0.80;;;15.30;1.00;;;;;;2614403;54;20172;-55
2024/02/25 02:32:00;;;;;;;0.80;0.80;;;15.30;1.00;;;;;;2614626;54;20418;-55
2024/02/25 02:37:48;;;;;;;0.80;0.80;;;15.30;1.00;;;;;;2614365;39;20796;-56
2024/02/25 02:43:36;;;;;;;0.80;0.80;;;15.30;1.00;;;;;;2613979;54;20161;-55
2024/02/25 02:49:23;;;;;;;0.90;0.90;;;15.30;1.00;;;;;;2614318;54;20502;-54
2024/02/25 02:55:11;;;;;;;0.73;0.73;;;15.30;1.00;;;;;;2613809;54;20133;-55
2024/02/25 03:00:59;;;;;;;0.80;0.80;;;15.30;1.00;;;;;;2613782;54;20137;-54
2024/02/25 03:06:46;;;;;;;0.80;0.80;;;15.30;1.00;;;;;;2613553;54;20237;-56
2024/02/25 03:12:34;;;;;;;0.80;0.80;;;15.30;1.00;;;;;;2613856;54;20174;-55
2024/02/25 03:18:22;;;;;;;0.80;0.80;;;15.30;1.00;;;;;;2614390;54;20122;-56
2024/02/25 03:24:11;;;;;;;0.80;0.80;;;15.30;1.00;;;;;;2613832;54;20133;-52
2024/02/25 03:29:59;;;;;;;0.80;0.80;;;15.30;1.00;;;;;;2613906;54;20410;-56
2024/02/25 03:35:47;;;;;;;0.80;0.80;;;15.30;1.00;;;;;;2614404;54;20126;-54
2024/02/25 03:41:35;;;;;;;0.90;0.90;;;15.30;1.00;;;;;;2614004;54;20140;-55
2024/02/25 03:47:23;;;;;;;0.83;0.83;;;15.30;1.00;;;;;;2614744;31;20643;-53
2024/02/25 03:53:11;;;;;;;0.90;0.90;;;15.20;1.00;;;;;;2614284;54;20392;-53
2024/02/25 03:58:59;;;;;;;0.80;0.80;;;15.30;1.00;;;;;;2613049;54;20126;-53
2024/02/25 04:04:46;;;;;;;0.70;0.70;;;15.20;1.00;;;;;;2613722;54;20137;-51
2024/02/25 04:10:34;;;;;;;0.80;0.80;;;15.30;1.00;;;;;;2613842;54;20125;-54
2024/02/25 04:16:22;;;;;;;0.80;0.80;;;15.30;1.00;;;;;;2614733;31;20643;-54
2024/02/25 04:19:19;;;;;;;0.80;0.80;;;15.30;1.00;;;;;;2613595;54;20395;-53
2024/02/25 04:21:44;;;;;;;0.80;0.80;;;15.30;1.00;;;;;;2613887;54;20413;-53
2024/02/25 04:27:32;;;;;;;0.90;0.90;;;15.30;1.00;;;;;;2613545;54;20116;-55
2024/02/25 04:33:20;;;;;;;0.80;0.80;;;15.20;1.00;;;;;;2613523;54;20239;-50
2024/02/25 04:39:10;;;;;;;0.80;0.80;;;15.30;1.00;;;;;;2613733;54;20145;-53
2024/02/25 04:44:58;;;;;;;0.80;0.80;;;15.30;1.00;;;;;;2613386;54;20494;-57
2024/02/25 04:50:46;;;;;;;0.80;0.80;;;15.20;1.00;;;;;;2613652;54;20177;-56
2024/02/25 04:56:34;;;;;;;0.80;0.77;;;15.20;1.00;;;;;;2614013;54;20140;-54
2024/02/25 05:02:21;;;;;;;0.80;0.80;;;15.20;1.00;;;;;;2613391;54;20160;-57
2024/02/25 05:08:09;;;;;;;0.80;0.80;;;15.20;1.00;;;;;;2613697;54;20132;-58
2024/02/25 05:13:57;;;;;;;0.90;0.90;;;15.30;1.00;;;;;;2614026;54;20678;-58
2024/02/25 05:23:47;;;;;;;0.90;0.90;;;15.30;1.00;;;;;;2614333;54;20362;-58
2024/02/25 05:29:35;;;;;;;0.80;0.80;;;15.30;1.00;;;;;;2614925;39;20673;-59
2024/02/25 05:35:22;;;;;;;0.90;0.90;;;15.20;1.00;;;;;;2614159;54;20125;-59
2024/02/25 05:41:12;;;;;;;0.90;0.90;;;15.20;1.00;;;;;;2613970;54;20201;-58
2024/02/25 05:46:59;;;;;;;0.70;0.70;;;15.20;1.00;;;;;;2614422;54;20980;-58
2024/02/25 05:52:47;;;;;;;0.90;0.90;;;15.20;1.00;;;;;;2614319;39;21090;-58
2024/02/25 05:55:50;;;;;;;1.00;1.00;;;15.30;1.00;;;;;;2614903;54;20426;-53
2024/02/25 05:58:16;;;;;;;0.90;0.90;;;15.20;1.00;;;;;;2614353;54;20152;-53
2024/02/25 06:04:04;;;;;;;1.00;1.00;;;15.20;1.00;;;;;;2614220;54;20157;-54
2024/02/25 06:09:52;;;;;;;1.00;1.00;;;15.20;1.00;;;;;;2613812;54;20362;-55
2024/02/25 06:15:40;;;;;;;0.93;0.93;;;15.20;1.00;;;;;;2614334;54;20395;-55
2024/02/25 06:21:27;;;;;;;0.80;0.80;;;15.20;1.00;;;;;;2613537;54;20621;-56
2024/02/25 06:27:15;;;;;;;0.90;0.90;;;15.20;1.00;;;;;;2614088;54;20113;-55
2024/02/25 06:33:03;;;;;;;0.83;0.83;;;15.20;1.00;;;;;;2614477;54;20679;-54
2024/02/25 06:38:51;;;;;;;0.80;0.77;;;15.20;1.00;;;;;;2614692;54;20418;-56
2024/02/25 06:44:44;;;;;;;0.80;0.80;;;15.20;1.00;;;;;;2614960;39;20556;-55
2024/02/25 06:50:31;;;;;;;0.90;0.90;;;15.20;1.00;;;;;;2614067;54;20422;-55
2024/02/25 06:56:19;;;;;;;0.80;0.80;;;15.20;1.00;;;;;;2614301;54;20195;-57
2024/02/25 07:02:07;;;;;;;0.90;0.90;;;15.20;1.00;;;;;;2614320;54;20259;-54
2024/02/25 07:07:56;;;;;;;0.70;0.70;;;15.20;1.00;;;;;;2613553;54;20149;-58
2024/02/25 07:13:45;;;;;;;0.80;0.80;;;15.20;1.00;;;;;;2614141;54;21055;-58
2024/02/25 07:23:48;;;;;;;0.87;0.87;;;15.20;1.00;;;;;;2613998;54;20944;-58
2024/02/25 07:29:35;;;;;;;0.80;0.80;;;15.20;1.00;;;;;;2614281;39;20813;-58
2024/02/25 07:35:22;;;;;;;0.70;0.70;;;15.20;1.00;;;;;;2613960;54;20776;-59
2024/02/25 07:41:10;;;;;;;0.90;0.90;;;15.20;1.00;;;;;;2614522;39;20540;-57
2024/02/25 07:46:58;;;;;;;0.80;0.80;;;15.20;1.00;;;;;;2613844;54;20165;-58
2024/02/25 07:52:46;;;;;;;0.80;0.80;;;15.20;1.00;;;;;;2613373;54;20159;-56
2024/02/25 07:58:33;;;;;;;0.80;0.80;;;15.20;1.00;;;;;;2613769;54;20133;-57
2024/02/25 08:04:21;;;;;;;0.77;0.70;;;15.30;1.00;;;;;;2613091;54;20242;-59
2024/02/25 08:10:09;;;;;;;0.80;0.80;;;15.30;1.00;;;;;;2613726;54;20152;-59
2024/02/25 08:15:57;;;;;;;0.80;0.80;;;15.30;1.00;;;;;;2613803;54;20419;-55
2024/02/25 08:19:19;;;;;;;0.77;0.77;;;15.30;1.00;;;;;;2614092;54;20398;-55
2024/02/25 08:21:44;;;;;;;0.80;0.80;;;15.30;1.00;;;;;;2613900;47;20180;-55
2024/02/25 08:27:32;;;;;;;0.90;0.90;;;15.20;1.00;;;;;;2613707;54;20157;-55
2024/02/25 08:33:20;;;;;;;0.80;0.80;;;15.30;1.00;;;;;;2613925;54;20146;-55
2024/02/25 08:39:07;;;;;;;0.80;0.80;;;15.30;1.00;;;;;;2612867;54;20253;-55
2024/02/25 08:44:55;;;;;;;0.80;0.80;;;15.30;1.00;;;;;;2614560;54;20944;-55
2024/02/25 08:50:43;;;;;;;0.70;0.70;;;15.30;1.00;;;;;;2614226;54;20234;-54
2024/02/25 08:56:31;;;;;;;0.80;0.80;;;15.30;1.00;;;;;;2614549;54;20133;-55
2024/02/25 09:02:18;;;;;;;0.70;0.70;;;15.30;1.00;;;;;;2613915;54;20678;-55
2024/02/25 09:08:06;;;;;;;0.80;0.80;;;15.30;1.00;;;;;;2614612;39;20555;-56
2024/02/25 09:13:54;;;;;;;0.73;0.73;;;15.30;1.00;;;;;;2614093;54;20116;-55
2024/02/25 09:23:48;;;;;;;0.80;0.80;;;15.40;1.00;;;;;;2614412;54;20418;-56
2024/02/25 09:29:42;;;;;;;0.80;0.70;;;15.40;1.00;;;;;;2614349;54;21029;-56
2024/02/25 09:35:30;;;;;;;1.00;1.00;;;15.50;1.00;;;;;;2613556;54;20433;-56
2024/02/25 09:47:52;;;;;;;0.70;0.60;;;15.50;1.00;;;;;;2613650;54;20370;-56
2024/02/25 09:53:42;;;;;;;0.80;0.70;;;15.50;1.00;;;;;;2614089;39;20520;-54
2024/02/25 09:59:30;;;;;;;0.70;0.70;;;15.50;1.00;;;;;;2614212;54;21592;-52
2024/02/25 10:05:19;;;;;;;0.77;0.77;;;15.50;1.00;;;;;;2614536;54;20148;-55
2024/02/25 10:11:10;;;;;;;0.80;0.80;;;15.50;1.00;;;;;;2613534;54;20529;-56
2024/02/25 10:17:03;;;;;;;0.80;0.80;;;15.50;1.00;;;;;;2614264;54;20372;-55
2024/02/25 10:23:11;;;;;;;0.70;0.70;;;15.50;1.00;;;;;;2614410;54;20403;-56
2024/02/25 10:29:03;;;;;;;0.73;0.73;;;15.60;1.00;;;;;;2613956;54;20399;-51
2024/02/25 10:34:56;;;;;;;0.70;0.70;;;15.80;1.00;;;;;;2614899;39;20861;-54
2024/02/25 10:40:43;;;;;;;0.70;0.70;;;15.90;1.00;;;;;;2614450;39;20813;-59
2024/02/25 10:46:44;;;;;;;0.80;0.80;;;15.90;1.00;;;;;;2614088;54;20177;-58
2024/02/25 10:52:32;;;;;;;0.80;0.80;;;15.90;1.00;;;;;;2614081;54;20387;-57
2024/02/25 10:58:20;;;;;;;0.70;0.67;;;15.90;1.00;;;;;;2614519;54;20382;-58
2024/02/25 11:04:08;;;;;;;0.80;0.80;;;15.90;1.00;;;;;;2614368;54;20130;-57
2024/02/25 11:09:56;;;;;;;0.70;0.70;;;15.80;1.00;;;;;;2613480;54;20389;-58
2024/02/25 11:15:48;;;;;;;0.70;0.60;;;15.80;1.00;;;;;;2614741;54;20134;-59
2024/02/25 11:21:37;;;;;;;0.70;0.53;;;15.80;1.00;;;;;;2614319;54;20479;-58
2024/02/25 11:24:47;;;;;;;0.70;0.70;;;15.80;1.00;;;;;;2614182;54;20549;-55
2024/02/25 11:30:37;;;;;;;0.70;0.60;;;15.70;1.00;;;;;;2614541;39;20800;-59
2024/02/25 11:36:25;;;;;;;0.80;0.80;;;15.70;1.00;;;;;;2614426;39;20768;-59
2024/02/25 11:39:28;;;;;;;0.70;0.63;;;15.60;1.00;;;;;;2614187;54;21013;-59
2024/02/25 11:41:56;;;;;;;0.70;0.70;;;15.60;1.00;;;;;;2613469;54;20443;-58
2024/02/25 11:47:46;;;;;;;0.70;0.70;;;15.70;1.00;;;;;;2613946;54;20457;-53
2024/02/25 11:53:33;;;;;;;0.80;0.80;;;15.80;1.00;;;;;;2613800;54;20505;-51
2024/02/25 11:59:22;;;;;;;0.70;0.60;;;15.90;1.00;;;;;;2613901;54;20150;-53
2024/02/25 12:05:11;;;;;;;0.80;0.80;;;16.00;1.00;;;;;;2613059;54;20409;-57
2024/02/25 12:11:00;;;;;;;0.87;0.87;;;15.80;1.00;;;;;;2610953;54;20906;-56
2024/02/25 12:16:50;;;;;;;0.70;0.70;;;15.20;1.00;;;;;;2611568;54;20422;-55
2024/02/25 12:22:38;;;;;;;0.80;0.80;;;15.00;1.00;;;;;;2612891;54;20450;-53
2024/02/25 12:28:27;;;;;;;0.80;0.80;;;14.90;1.00;;;;;;2610730;54;20686;-56
2024/02/25 12:34:15;;;;;;;1.20;1.10;;;16.30;1.00;;;;;;2612143;54;20413;-56
2024/02/25 12:40:08;;;;;;;2.13;2.03;;;18.30;1.00;;;;;;2612803;54;20449;-58
2024/02/25 12:45:56;;;;;;;1.53;1.43;;;19.60;1.00;;;;;;2612513;54;20396;-64
2024/02/25 12:51:44;;;;;;;2.90;2.80;;;20.40;1.00;;;;;;2610892;54;20651;-57
2024/02/25 12:57:31;;;;;;;4.13;4.03;;;20.10;1.00;;;;;;2612059;54;20162;-58
2024/02/25 13:03:19;;;;;;;3.70;3.60;;;20.60;1.00;;;;;;2613271;54;20130;-58
2024/02/25 13:09:06;;;;;;;7.82;7.53;;;21.30;1.00;;;;;;2611807;54;20395;-58
2024/02/25 13:14:54;;;;;;;2.70;2.60;;;21.70;1.00;;;;;;2612369;54;20155;-58
2024/02/25 13:27:11;;;;;;;6.80;6.60;;;22.30;1.00;;;;;;2611162;54;20910;-58
2024/02/25 13:32:58;;;;;;;6.83;6.63;;;22.90;1.00;;;;;;2612639;54;20420;-60
2024/02/25 13:38:46;;;;;;;7.30;7.10;;;22.70;1.00;;;;;;2612691;54;20200;-58
2024/02/25 13:44:34;;;;;;;25.20;24.40;;;23.00;1.00;;;;;;2611626;54;20145;-56
2024/02/25 13:50:22;;;;;;;20.20;19.60;;;22.30;1.00;;;;;;2613110;54;20385;-57
2024/02/25 13:56:10;;;;;;;22.67;21.97;;;22.30;1.00;;;;;;2612930;39;20556;-55
2024/02/25 14:01:57;;;;;;;3.00;2.90;;;22.40;1.00;;;;;;2613832;54;20411;-55
2024/02/25 14:07:46;;;;;;;4.27;4.07;;;22.40;1.00;;;;;;2613984;54;20151;-57
2024/02/25 14:13:33;;;;;;;4.60;4.40;;;22.40;1.00;;;;;;2611499;54;20135;-56
2024/02/25 14:19:21;;;;;;;4.30;4.20;;;22.40;1.00;;;;;;2612525;54;20832;-57
2024/02/25 14:28:31;;;;;;;5.20;5.00;;;22.50;1.00;;;;;;2613665;39;20763;-57
2024/02/25 14:34:19;;;;;;;5.20;5.00;;;22.50;1.00;;;;;;2614113;54;20142;-56
2024/02/25 14:40:08;;;;;;;4.50;4.40;;;22.50;1.00;;;;;;2613673;54;20388;-57
2024/02/25 14:45:56;;;;;;;4.97;4.77;;;22.30;1.00;;;;;;2610821;54;20393;-55
2024/02/25 14:51:43;;;;;;;4.40;4.30;;;22.20;1.00;;;;;;2613809;54;20172;-56
2024/02/25 14:54:47;;;;;;;4.40;4.30;;;22.10;1.00;;;;;;2612910;54;20417;-56
2024/02/25 14:57:12;;;;;;;4.50;4.40;;;22.10;1.00;;;;;;2610565;54;20758;-57
2024/02/25 15:03:00;;;;;;;4.40;4.30;;;21.80;1.00;;;;;;2614027;54;21021;-57
2024/02/25 15:08:48;;;;;;;4.67;4.50;;;21.80;1.00;;;;;;2613021;54;20132;-56
2024/02/25 15:15:26;;;;;;;4.20;4.10;;;21.60;1.00;;;;;;2612216;54;20129;-56
2024/02/25 15:21:15;;;;;;;4.80;4.60;;;21.50;1.00;;;;;;2610103;54;20404;-56
2024/02/25 15:27:03;;;;;;;10.27;9.60;;;21.40;1.00;;;;;;2611412;54;20351;-56
2024/02/25 15:32:51;;;;;;;4.97;4.77;;;21.30;1.00;;;;;;2612110;54;20399;-62
2024/02/25 15:38:38;;;;;;;5.60;5.40;;;21.10;1.00;;;;;;2611814;54;20127;-56
2024/02/25 15:44:26;;;;;;;14.30;13.80;;;21.60;1.00;;;;;;2611894;54;20127;-56
2024/02/25 15:50:15;;;;;;;14.03;13.53;;;22.00;1.00;;;;;;2612177;39;21009;-54
2024/02/25 15:56:03;;;;;;;14.10;13.60;;;21.80;1.00;;;;;;2613353;54;20460;-51
2024/02/25 16:01:51;;;;;;;16.13;15.63;;;21.60;1.00;;;;;;2612838;54;20392;-56
2024/02/25 16:07:41;;;;;;;14.73;14.23;;;22.10;1.00;;;;;;2613462;54;20144;-52
2024/02/25 16:10:56;;;;;;;15.07;14.57;;;22.50;1.00;;;;;;2611840;54;20539;-56
2024/02/25 16:13:22;;;;;;;12.77;12.37;;;22.70;1.00;;;;;;2614109;54;20422;-56
2024/02/25 16:19:10;;;;;;;19.20;18.50;;;23.20;1.00;;;;;;2612345;54;20136;-55
2024/02/25 16:24:57;;;;;;;21.53;20.63;;;23.20;1.00;;;;;;2610910;54;20398;-57
2024/02/25 16:30:45;;;;;;;26.07;24.67;;;23.40;1.00;;;;;;2612539;54;20171;-54
2024/02/25 16:36:35;;;;;;;27.93;26.43;;;24.10;1.00;;;;;;2611492;54;20260;-57
2024/02/25 16:42:22;;;;;;;21.10;20.20;;;24.40;1.00;;;;;;2613246;54;20429;-57
2024/02/25 16:48:10;;;;;;;21.87;20.87;;;24.50;1.00;;;;;;2613195;54;20152;-56
2024/02/25 16:53:58;;;;;;;20.60;19.70;;;24.50;1.00;;;;;;2610921;31;20599;-59
2024/02/25 16:59:46;;;;;;;27.27;26.07;;;25.10;1.00;;;;;;2611100;54;20134;-58
2024/02/25 17:05:33;;;;;;;26.93;25.73;;;25.40;1.00;;;;;;2613177;47;20136;-57
2024/02/25 17:15:24;;;;;;;26.37;25.17;;;24.80;1.00;;;;;;2612810;54;20429;-58
2024/02/25 17:21:11;;;;;;;26.47;25.37;;;25.20;1.00;;;;;;2612609;54;20383;-58
2024/02/25 17:26:59;;;;;;;26.50;25.17;;;25.40;1.00;;;;;;2612399;31;20840;-63
2024/02/25 17:32:47;;;;;;;23.90;22.80;;;25.40;1.00;;;;;;2612452;54;20139;-60
2024/02/25 17:38:34;;;;;;;23.80;22.70;;;25.30;1.00;;;;;;2611521;54;20255;-63
2024/02/25 17:44:24;;;;;;;18.40;17.70;;;25.30;1.00;;;;;;2613257;39;20674;-63
2024/02/25 17:50:12;;;;;;;27.87;26.13;;;25.40;1.00;;;;;;2613488;54;20380;-65
2024/02/25 17:55:59;;;;;;;25.93;24.83;;;25.10;1.00;;;;;;2613229;54;20123;-67
2024/02/25 18:01:47;;;;;;;18.50;17.80;;;25.10;1.00;;;;;;2612797;31;20577;-64
2024/02/25 18:07:35;;;;;;;25.60;24.60;;;25.40;1.00;;;;;;2613403;39;20488;-63
2024/02/25 18:10:56;;;;;;;25.97;24.97;;;25.40;1.00;;;;;;2612736;54;20428;-63
2024/02/25 18:13:22;;;;;;;26.87;25.77;;;25.50;1.00;;;;;;2611806;54;20418;-64
2024/02/25 18:19:09;;;;;;;22.63;21.53;;;25.60;1.00;;;;;;2614357;54;20145;-67
2024/02/25 18:24:57;;;;;;;26.57;25.27;;;26.10;1.00;;;;;;2613295;54;20127;-65
2024/02/25 18:30:45;;;;;;;21.77;20.98;;;26.30;1.00;;;;;;2610380;54;20350;-60
2024/02/25 18:36:33;;;;;;;34.13;32.53;;;26.30;1.00;;;;;;2612304;54;20167;-61
2024/02/25 18:42:21;;;;;;;34.73;33.03;;;26.30;1.00;;;;;;2611764;54;20153;-62
2024/02/25 18:48:10;;;;;;;32.57;31.07;;;26.30;1.00;;;;;;2613095;54;20420;-60
2024/02/25 18:53:58;;;;;;;16.00;15.50;;;26.50;1.00;;;;;;2612103;54;20383;-59
2024/02/25 18:59:46;;;;;;;14.40;13.90;;;26.60;1.00;;;;;;2612597;54;20124;-58
2024/02/25 19:05:33;;;;;;;31.27;29.87;;;26.80;1.00;;;;;;2612615;54;20158;-60
2024/02/25 19:15:26;;;;;;;17.40;16.80;;;27.30;1.00;;;;;;2613371;54;20423;-67
2024/02/25 19:21:14;;;;;;;30.40;29.00;;;26.00;1.00;;;;;;2612711;54;20452;-69
2024/02/25 19:27:02;;;;;;;31.70;30.20;;;27.60;1.00;;;;;;2613120;54;20407;-59
2024/02/25 19:32:50;;;;;;;19.43;18.73;;;28.60;1.00;;;;;;2610980;54;20160;-61
2024/02/25 19:38:37;;;;;;;29.07;27.77;;;28.20;1.00;;;;;;2611730;54;20135;-60
2024/02/25 19:44:25;;;;;;;22.90;21.90;;;28.30;1.00;;;;;;2612132;54;20395;-61
2024/02/25 19:50:13;;;;;;;26.80;25.50;;;28.40;1.00;;;;;;2612555;54;20902;-60
2024/02/25 19:53:16;;;;;;;25.40;24.20;;;28.40;1.00;;;;;;2612793;54;20403;-60
2024/02/25 19:55:42;;;;;;;25.80;24.60;;;28.50;1.00;;;;;;2612586;54;20157;-59
2024/02/25 20:01:29;;;;;;;17.30;16.70;;;28.40;1.00;;;;;;2611675;54;20158;-61
2024/02/25 20:07:17;;;;;;;27.20;25.90;;;27.80;1.00;;;;;;2612228;54;20179;-59
2024/02/25 20:16:27;;;;;;;25.63;24.43;;;24.10;1.00;;;;;;2613446;54;20429;-59
2024/02/25 20:22:15;;;;;;;25.13;23.93;;;25.50;1.00;;;;;;2612203;54;20136;-61
2024/02/25 20:28:04;;;;;;;26.10;24.90;;;26.70;1.00;;;;;;2610671;54;20399;-59
2024/02/25 20:33:51;;;;;;;23.17;22.17;;;26.60;1.00;;;;;;2613963;39;20808;-63
2024/02/25 20:39:40;;;;;;;23.60;22.60;;;27.00;1.00;;;;;;2611904;54;20154;-61
2024/02/25 20:45:28;;;;;;;33.30;31.70;;;26.80;1.00;;;;;;2612576;54;20399;-58
2024/02/25 20:51:15;;;;;;;31.83;30.33;;;26.60;1.00;;;;;;2612778;54;20704;-59
2024/02/25 20:57:04;;;;;;;23.67;22.77;;;26.60;1.00;;;;;;2612502;54;20715;-61
2024/02/25 21:02:51;;;;;;;21.43;20.63;;;26.30;1.00;;;;;;2612925;54;20384;-64
2024/02/25 21:08:39;;;;;;;32.77;31.17;;;26.70;1.00;;;;;;2611557;54;20120;-62
2024/02/25 21:11:56;;;;;;;33.00;31.40;;;26.90;1.00;;;;;;2612683;39;20857;-60
2024/02/25 21:14:22;;;;;;;33.37;31.77;;;27.10;1.00;;;;;;2612411;54;20678;-62
2024/02/25 21:20:10;;;;;;;33.57;31.97;;;27.50;1.00;;;;;;2612853;54;20368;-61
2024/02/25 21:25:59;;;;;;;19.40;18.67;;;27.80;1.00;;;;;;2629074;36;20473;-59
2024/02/25 21:31:46;;;;;;;19.23;18.53;;;27.60;1.00;;;;;;2611514;54;20406;-60
2024/02/25 21:37:36;;;;;;;19.07;18.37;;;27.40;1.00;;;;;;2611742;54;20139;-60
2024/02/25 21:43:23;;;;;;;19.93;19.23;;;27.20;1.00;;;;;;2611538;54;20401;-60
2024/02/25 21:49:11;;;;;;;33.43;31.83;;;26.80;1.00;;;;;;2611823;54;20152;-55
2024/02/25 21:55:01;;;;;;;33.07;31.57;;;26.90;1.00;;;;;;2612826;54;20186;-59
2024/02/25 22:00:48;;;;;;;32.57;31.07;;;27.00;1.00;;;;;;2613030;54;20439;-60
2024/02/25 22:06:38;;;;;;;33.00;31.40;;;27.10;1.00;;;;;;2612859;54;20150;-60
2024/02/25 22:16:26;;;;;;;32.90;31.40;;;27.00;1.00;;;;;;2613384;54;20373;-63
2024/02/25 22:22:13;;;;;;;22.03;21.13;;;27.40;1.00;;;;;;2610663;54;20394;-57
2024/02/25 22:28:01;;;;;;;20.17;19.47;;;27.30;1.00;;;;;;2612637;54;20136;-56
2024/02/25 22:33:49;;;;;;;20.93;20.23;;;27.20;1.00;;;;;;2614187;54;21110;-57
2024/02/25 22:39:37;;;;;;;21.10;20.40;;;27.30;1.00;;;;;;2612650;54;20129;-56
2024/02/25 22:45:28;;;;;;;21.10;20.30;;;27.30;1.00;;;;;;2610114;39;20514;-56
2024/02/25 22:51:16;;;;;;;21.00;20.27;;;27.30;1.00;;;;;;2612294;54;20385;-58
2024/02/25 22:57:04;;;;;;;23.73;22.63;;;27.20;1.00;;;;;;2613063;54;20126;-59
2024/02/25 23:02:52;;;;;;;21.10;20.40;;;27.00;1.00;;;;;;2613197;54;20369;-59
2024/02/25 23:08:40;;;;;;;22.80;22.00;;;26.80;1.00;;;;;;2612626;54;20404;-57
2024/02/25 23:11:56;;;;;;;21.50;20.80;;;26.80;1.00;;;;;;2612355;54;20413;-57
2024/02/25 23:14:22;;;;;;;21.37;20.57;;;26.70;1.00;;;;;;2614206;54;20682;-56
2024/02/25 23:20:09;;;;;;;20.47;19.77;;;26.40;1.00;;;;;;2613833;54;20160;-58
2024/02/25 23:25:57;;;;;;;21.90;21.10;;;26.20;1.00;;;;;;2611455;54;20128;-59
2024/02/25 23:31:44;;;;;;;21.50;20.80;;;26.00;1.00;;;;;;2612948;54;20151;-57
2024/02/25 23:37:32;;;;;;;21.10;20.40;;;25.80;1.00;;;;;;2611665;54;20148;-58
2024/02/25 23:43:20;;;;;;;22.50;21.70;;;25.60;1.00;;;;;;2613781;39;20762;-60
2024/02/25 23:49:13;;;;;;;21.37;20.63;;;25.40;1.00;;;;;;2610773;54;21009;-59
2024/02/25 23:55:02;;;;;;;22.33;21.53;;;25.20;1.00;;;;;;2612922;39;20895;-58
